Time;durP1;ratioP1;P1;durP2;ratioP2;P2;SDS_P1;SDS_P2;PMS_P1;PMS_P2;Temp;Humidity;BMP_temperature;BMP_pressure;BME280_temperature;BME280_humidity;BME280_pressure;Samples;Min_cycle;Max_cycle;Signal;HPM_P1;HPM_P2
2022/03/29 00:02:01;;;;;;;7.57;6.78;;;20.30;42.70;;;;;;5012855;28;20195;-67
2022/03/29 00:04:27;;;;;;;7.47;6.78;;;20.40;42.80;;;;;;5012755;28;20208;-68
2022/03/29 00:06:54;;;;;;;7.63;6.82;;;20.30;42.60;;;;;;5012809;28;20184;-68
2022/03/29 00:09:20;;;;;;;8.10;7.30;;;20.30;42.60;;;;;;5012565;28;20216;-68
2022/03/29 00:11:46;;;;;;;7.88;7.07;;;20.30;42.60;;;;;;4996607;28;20282;-68
2022/03/29 00:14:13;;;;;;;7.93;7.13;;;20.30;42.60;;;;;;5012389;28;20219;-67
2022/03/29 00:16:40;;;;;;;8.10;7.30;;;20.30;42.60;;;;;;5012627;28;20184;-67
2022/03/29 00:19:07;;;;;;;10.52;7.95;;;20.30;42.60;;;;;;4996095;28;20188;-68
2022/03/29 00:21:33;;;;;;;8.00;7.20;;;20.30;42.50;;;;;;4996186;28;20184;-67
2022/03/29 00:23:59;;;;;;;7.90;7.10;;;20.30;42.50;;;;;;5012606;28;20188;-68
2022/03/29 00:26:25;;;;;;;8.25;7.28;;;20.30;42.50;;;;;;4996078;28;20245;-67
2022/03/29 00:28:52;;;;;;;8.32;7.53;;;20.30;42.40;;;;;;5012261;28;20270;-67
2022/03/29 00:31:19;;;;;;;7.50;6.75;;;20.30;42.50;;;;;;5012607;28;20195;-67
2022/03/29 00:33:49;;;;;;;7.20;6.50;;;20.30;42.50;;;;;;5013389;28;20196;-67
2022/03/29 00:36:16;;;;;;;7.47;6.68;;;20.30;42.60;;;;;;5012378;28;20173;-67
2022/03/29 00:38:44;;;;;;;7.32;6.63;;;20.30;42.60;;;;;;5012066;28;20187;-68
2022/03/29 00:41:10;;;;;;;7.30;6.60;;;20.30;42.60;;;;;;5012352;28;20195;-68
2022/03/29 00:43:36;;;;;;;7.30;6.60;;;20.30;42.60;;;;;;4995951;28;20188;-68
2022/03/29 00:46:03;;;;;;;6.80;6.18;;;20.30;42.60;;;;;;5011964;28;20251;-68
2022/03/29 00:48:29;;;;;;;7.10;6.40;;;20.30;42.70;;;;;;5011941;28;20184;-68
2022/03/29 00:50:56;;;;;;;6.43;5.82;;;20.30;42.70;;;;;;5012168;28;20263;-68
2022/03/29 00:53:23;;;;;;;6.90;6.25;;;20.30;42.70;;;;;;5013147;28;20195;-68
2022/03/29 00:55:52;;;;;;;7.05;6.35;;;20.30;42.70;;;;;;5012274;28;20204;-68
2022/03/29 00:58:18;;;;;;;7.85;6.63;;;20.30;42.70;;;;;;5011701;28;20214;-68
2022/03/29 01:00:44;;;;;;;7.72;6.93;;;20.30;42.60;;;;;;5011912;28;20564;-68
2022/03/29 01:03:11;;;;;;;7.63;6.93;;;20.30;42.60;;;;;;4994762;28;20208;-68
2022/03/29 01:05:37;;;;;;;7.95;7.05;;;20.30;42.60;;;;;;4995769;28;20216;-68
2022/03/29 01:08:05;;;;;;;7.32;6.63;;;20.30;42.50;;;;;;4995514;28;20196;-68
2022/03/29 01:10:31;;;;;;;7.65;6.95;;;20.20;42.40;;;;;;5011706;28;20196;-67
2022/03/29 01:12:57;;;;;;;8.30;6.90;;;20.20;42.40;;;;;;5011777;28;20183;-68
2022/03/29 01:15:26;;;;;;;7.72;7.00;;;20.30;42.50;;;;;;5052653;23;20472;-68
2022/03/29 01:17:54;;;;;;;7.15;6.45;;;20.20;42.40;;;;;;5034337;28;20189;-69
2022/03/29 01:20:27;;;;;;;7.30;6.28;;;20.20;42.40;;;;;;5034919;28;20182;-69
2022/03/29 01:22:55;;;;;;;6.68;6.07;;;20.20;42.50;;;;;;5034844;28;20259;-69
2022/03/29 01:25:28;;;;;;;7.25;6.55;;;20.20;42.50;;;;;;5052143;28;20208;-69
2022/03/29 01:27:54;;;;;;;6.63;5.70;;;20.20;42.50;;;;;;5050851;28;20196;-69
2022/03/29 01:30:21;;;;;;;7.35;6.55;;;20.20;42.50;;;;;;5034442;28;20218;-69
2022/03/29 01:32:50;;;;;;;6.55;5.95;;;20.20;42.50;;;;;;5034615;28;20190;-69
2022/03/29 01:35:20;;;;;;;7.60;6.82;;;20.20;42.50;;;;;;5052165;28;20297;-69
2022/03/29 01:37:46;;;;;;;6.90;6.20;;;20.20;42.60;;;;;;5051028;28;20252;-70
2022/03/29 01:40:15;;;;;;;7.30;6.60;;;20.20;42.60;;;;;;5050972;28;20197;-70
2022/03/29 01:43:00;;;;;;;7.30;6.50;;;20.20;42.60;;;;;;5051782;28;20206;-69
2022/03/29 01:45:30;;;;;;;7.57;6.40;;;20.20;42.50;;;;;;5050849;28;20653;-68
2022/03/29 01:47:56;;;;;;;6.63;5.93;;;20.20;42.40;;;;;;5050791;28;20190;-68
2022/03/29 01:50:23;;;;;;;7.28;6.40;;;20.20;42.40;;;;;;5050700;28;20268;-69
2022/03/29 01:52:49;;;;;;;7.18;6.57;;;20.20;42.40;;;;;;5050666;28;20236;-69
2022/03/29 01:55:18;;;;;;;6.72;6.03;;;20.20;42.40;;;;;;5034541;28;20207;-68
2022/03/29 01:57:46;;;;;;;6.68;6.07;;;20.20;42.40;;;;;;5051740;28;20594;-69
2022/03/29 02:00:31;;;;;;;6.35;5.75;;;20.20;42.50;;;;;;5051095;28;20179;-69
2022/03/29 02:02:59;;;;;;;6.80;6.10;;;20.20;42.50;;;;;;5050768;28;20186;-69
2022/03/29 02:05:25;;;;;;;6.20;5.70;;;20.20;42.50;;;;;;5050953;28;20198;-69
2022/03/29 02:07:51;;;;;;;6.35;5.85;;;20.20;42.60;;;;;;5050449;28;20229;-69
2022/03/29 02:10:19;;;;;;;6.75;6.05;;;20.20;42.60;;;;;;5051806;28;20242;-68
2022/03/29 02:12:47;;;;;;;6.65;6.00;;;20.20;42.60;;;;;;5051880;28;20190;-69
2022/03/29 02:15:13;;;;;;;6.43;5.82;;;20.20;42.60;;;;;;5053473;28;20723;-69
2022/03/29 02:17:41;;;;;;;7.70;6.35;;;20.20;42.60;;;;;;5054811;28;20554;-69
2022/03/29 02:20:07;;;;;;;6.88;6.13;;;20.20;42.60;;;;;;5054455;28;20245;-69
2022/03/29 02:22:34;;;;;;;6.95;6.25;;;20.20;42.50;;;;;;5054656;28;20182;-69
2022/03/29 02:25:00;;;;;;;7.28;6.57;;;20.20;42.50;;;;;;5071195;28;20204;-69
2022/03/29 02:27:26;;;;;;;7.07;6.35;;;20.20;42.50;;;;;;5054424;28;20183;-68
2022/03/29 02:29:52;;;;;;;6.88;6.18;;;20.20;42.50;;;;;;5054224;28;20331;-69
2022/03/29 02:32:18;;;;;;;7.15;6.45;;;20.20;42.50;;;;;;5054338;28;20194;-69
2022/03/29 02:34:45;;;;;;;7.20;6.50;;;20.20;42.50;;;;;;5055395;28;20209;-68
2022/03/29 02:37:13;;;;;;;6.82;6.15;;;20.20;42.40;;;;;;5037619;28;20190;-69
2022/03/29 02:39:39;;;;;;;6.72;6.03;;;20.20;42.40;;;;;;5054165;28;20197;-69
2022/03/29 02:42:07;;;;;;;6.75;5.95;;;20.10;42.30;;;;;;5054006;28;20228;-69
2022/03/29 02:44:33;;;;;;;6.57;5.97;;;20.20;42.40;;;;;;5053997;28;20221;-69
2022/03/29 02:46:59;;;;;;;6.32;5.72;;;20.10;42.50;;;;;;5055454;28;20197;-68
2022/03/29 02:49:25;;;;;;;6.32;5.72;;;20.10;42.40;;;;;;5054706;28;20222;-69
2022/03/29 02:51:52;;;;;;;6.10;5.50;;;20.10;42.40;;;;;;5053964;28;20205;-69
2022/03/29 02:54:21;;;;;;;6.43;5.82;;;20.20;42.60;;;;;;5053725;28;20213;-69
2022/03/29 02:56:47;;;;;;;6.13;5.50;;;20.10;42.60;;;;;;5054895;28;20182;-69
2022/03/29 02:59:14;;;;;;;6.00;5.40;;;20.10;42.50;;;;;;5051812;28;20187;-69
2022/03/29 03:01:40;;;;;;;6.75;5.90;;;20.10;42.50;;;;;;5054662;28;20186;-69
2022/03/29 03:04:07;;;;;;;6.80;5.95;;;20.10;42.50;;;;;;5070384;28;20278;-69
2022/03/29 03:06:34;;;;;;;6.57;5.72;;;20.10;42.60;;;;;;5053825;28;20237;-68
2022/03/29 03:09:00;;;;;;;6.60;6.00;;;20.10;42.60;;;;;;5053150;28;20671;-69
2022/03/29 03:11:26;;;;;;;6.78;6.18;;;20.10;42.60;;;;;;5053883;28;20209;-68
2022/03/29 03:13:52;;;;;;;6.57;5.88;;;20.10;42.60;;;;;;5037058;28;20189;-68
2022/03/29 03:16:18;;;;;;;6.75;6.00;;;20.10;43.20;;;;;;5054726;28;20206;-69
2022/03/29 03:18:44;;;;;;;7.18;5.93;;;20.10;42.50;;;;;;5054292;28;20186;-69
2022/03/29 03:21:09;;;;;;;6.68;5.95;;;20.10;42.40;;;;;;5053274;28;20185;-69
2022/03/29 03:23:36;;;;;;;6.50;5.90;;;20.10;42.40;;;;;;5069940;28;20191;-69
2022/03/29 03:26:02;;;;;;;6.57;5.90;;;20.10;42.30;;;;;;5052334;28;20210;-69
2022/03/29 03:28:28;;;;;;;6.72;6.03;;;20.10;42.30;;;;;;5053083;28;20244;-69
2022/03/29 03:30:53;;;;;;;6.38;5.78;;;20.10;42.30;;;;;;5053048;28;20297;-69
2022/03/29 03:33:20;;;;;;;6.70;6.00;;;20.10;42.30;;;;;;5054317;28;20174;-69
2022/03/29 03:35:46;;;;;;;6.30;5.70;;;20.10;42.30;;;;;;5054136;28;20210;-70
2022/03/29 03:38:12;;;;;;;6.60;6.00;;;20.10;42.30;;;;;;5054045;28;20182;-68
2022/03/29 03:40:41;;;;;;;6.25;5.68;;;20.10;42.40;;;;;;5053232;28;20186;-68
2022/03/29 03:43:07;;;;;;;6.28;5.68;;;20.10;42.40;;;;;;5069506;28;20201;-69
2022/03/29 03:45:33;;;;;;;6.18;5.38;;;20.10;42.60;;;;;;5053073;28;20210;-69
2022/03/29 03:47:58;;;;;;;5.90;5.30;;;20.10;42.60;;;;;;5052653;28;20240;-69
2022/03/29 03:50:24;;;;;;;6.07;5.47;;;20.10;42.50;;;;;;5069321;28;20218;-69
2022/03/29 03:52:51;;;;;;;6.43;5.82;;;20.10;42.50;;;;;;5054285;28;20270;-68
2022/03/29 03:55:18;;;;;;;6.28;5.68;;;20.10;42.60;;;;;;5053854;28;20203;-69
2022/03/29 03:57:44;;;;;;;6.38;5.70;;;20.10;42.60;;;;;;5054164;28;20179;-69
2022/03/29 04:00:11;;;;;;;5.82;5.32;;;20.10;42.60;;;;;;5053708;28;20214;-69
2022/03/29 04:02:41;;;;;;;6.45;5.85;;;20.10;42.60;;;;;;5068893;28;20178;-69
2022/03/29 04:05:08;;;;;;;6.90;6.13;;;20.10;42.60;;;;;;5052591;28;20237;-69
2022/03/29 04:07:34;;;;;;;7.40;6.35;;;20.10;42.60;;;;;;5036209;28;20178;-70
2022/03/29 04:10:00;;;;;;;6.68;5.97;;;20.10;42.60;;;;;;5053360;28;20209;-70
2022/03/29 04:12:27;;;;;;;8.43;7.10;;;20.10;43.10;;;;;;5053445;28;20224;-70
2022/03/29 04:14:54;;;;;;;7.72;6.85;;;20.10;42.50;;;;;;5053196;28;20210;-69
2022/03/29 04:17:20;;;;;;;7.57;6.78;;;20.00;42.30;;;;;;5068767;28;20166;-70
2022/03/29 04:19:46;;;;;;;7.53;6.82;;;20.10;42.40;;;;;;5066497;28;20673;-70
2022/03/29 04:22:11;;;;;;;7.30;6.60;;;20.00;42.20;;;;;;5048982;28;20238;-69
2022/03/29 04:24:38;;;;;;;7.78;6.97;;;20.10;42.30;;;;;;5033272;28;20199;-70
2022/03/29 04:27:05;;;;;;;7.85;6.57;;;20.00;42.20;;;;;;5048987;28;20215;-69
2022/03/29 04:29:31;;;;;;;7.15;6.13;;;20.00;42.20;;;;;;5015419;28;20623;-69
2022/03/29 04:31:57;;;;;;;7.03;6.28;;;20.00;42.40;;;;;;5015682;28;20175;-69
2022/03/29 04:34:23;;;;;;;6.80;6.20;;;20.00;42.30;;;;;;5048549;28;20179;-70
2022/03/29 04:36:49;;;;;;;6.30;5.70;;;20.00;42.30;;;;;;5032998;28;20669;-70
2022/03/29 04:39:14;;;;;;;6.82;6.13;;;20.00;42.40;;;;;;5031958;28;20191;-70
2022/03/29 04:41:40;;;;;;;6.90;6.20;;;20.00;42.50;;;;;;5031980;28;20187;-70
2022/03/29 04:44:06;;;;;;;6.43;5.82;;;20.00;42.50;;;;;;5048388;28;20229;-69
2022/03/29 04:46:32;;;;;;;5.95;5.45;;;20.00;42.50;;;;;;5031964;28;20237;-70
2022/03/29 04:48:57;;;;;;;7.28;6.18;;;20.00;42.70;;;;;;5031783;28;20225;-70
2022/03/29 04:51:23;;;;;;;7.07;6.30;;;20.00;42.50;;;;;;5048375;28;20712;-70
2022/03/29 04:53:49;;;;;;;6.97;6.28;;;20.00;42.60;;;;;;5048240;28;20195;-71
2022/03/29 04:56:15;;;;;;;6.53;5.93;;;20.00;42.60;;;;;;5065290;28;20210;-71
2022/03/29 04:58:41;;;;;;;7.35;5.88;;;20.00;42.50;;;;;;5048067;28;20186;-71
2022/03/29 05:01:06;;;;;;;6.65;6.05;;;20.00;42.50;;;;;;5032846;28;20179;-70
2022/03/29 05:03:33;;;;;;;7.97;6.70;;;20.00;42.50;;;;;;5032636;28;20163;-71
2022/03/29 05:05:58;;;;;;;6.93;6.32;;;20.00;42.50;;;;;;5047973;28;20219;-70
2022/03/29 05:08:24;;;;;;;8.75;7.00;;;20.00;42.40;;;;;;5031312;28;20183;-71
2022/03/29 05:10:50;;;;;;;8.45;7.18;;;20.00;42.40;;;;;;5047939;28;20257;-70
2022/03/29 05:13:17;;;;;;;7.53;6.78;;;20.00;42.40;;;;;;5032646;28;20176;-71
2022/03/29 05:15:44;;;;;;;7.15;6.28;;;20.00;42.50;;;;;;5031185;28;20590;-71
2022/03/29 05:18:10;;;;;;;7.13;6.47;;;20.00;42.40;;;;;;5047647;28;20188;-71
2022/03/29 05:20:36;;;;;;;8.52;7.30;;;20.00;42.40;;;;;;5064490;28;20743;-71
2022/03/29 05:23:06;;;;;;;8.30;7.10;;;20.00;42.30;;;;;;5047677;28;20286;-70
2022/03/29 05:25:34;;;;;;;7.35;6.10;;;20.00;42.30;;;;;;5047696;28;20207;-71
2022/03/29 05:28:00;;;;;;;6.82;6.22;;;20.00;42.40;;;;;;5064191;28;20187;-70
2022/03/29 05:30:26;;;;;;;7.07;6.45;;;20.00;42.40;;;;;;5047935;28;20257;-71
2022/03/29 05:32:57;;;;;;;7.38;6.45;;;20.00;42.40;;;;;;5032339;28;20202;-70
2022/03/29 05:35:31;;;;;;;6.78;6.13;;;19.90;42.40;;;;;;5031072;28;20207;-71
2022/03/29 05:38:00;;;;;;;8.25;6.35;;;20.00;42.50;;;;;;5050067;28;20178;-71
2022/03/29 05:40:28;;;;;;;7.25;5.60;;;20.00;42.60;;;;;;5050934;28;20197;-71
2022/03/29 05:42:55;;;;;;;7.03;6.32;;;20.00;42.50;;;;;;5067833;28;20190;-72
2022/03/29 05:45:21;;;;;;;6.32;5.63;;;20.00;42.50;;;;;;5068070;28;20203;-71
2022/03/29 05:50:31;;;;;;;7.40;6.55;;;20.00;42.50;;;;;;5071389;28;20221;-71
2022/03/29 05:52:58;;;;;;;8.95;7.15;;;20.00;42.40;;;;;;5054873;28;20178;-71
2022/03/29 05:55:26;;;;;;;7.22;6.47;;;20.00;42.30;;;;;;5071832;28;20300;-71
2022/03/29 05:57:53;;;;;;;8.90;7.53;;;20.00;42.30;;;;;;5071498;28;20186;-71
2022/03/29 06:00:23;;;;;;;8.40;7.18;;;20.00;42.40;;;;;;5071549;28;20194;-71
2022/03/29 06:02:55;;;;;;;7.20;6.30;;;20.00;42.40;;;;;;5054662;28;20711;-69
2022/03/29 06:05:21;;;;;;;7.00;6.30;;;20.00;42.30;;;;;;5071457;28;20199;-71
2022/03/29 06:07:47;;;;;;;7.53;6.30;;;20.00;42.40;;;;;;5055958;28;20182;-70
2022/03/29 06:10:13;;;;;;;6.63;5.97;;;20.00;42.40;;;;;;5055628;28;20657;-70
2022/03/29 06:12:39;;;;;;;7.05;6.45;;;20.00;42.40;;;;;;5071294;28;20181;-70
2022/03/29 06:15:08;;;;;;;6.93;6.25;;;20.00;42.40;;;;;;5054511;28;20218;-71
2022/03/29 06:17:35;;;;;;;6.15;5.55;;;20.00;42.50;;;;;;5054551;28;20190;-71
2022/03/29 06:20:04;;;;;;;6.57;5.95;;;20.00;42.50;;;;;;5054262;28;20186;-71
2022/03/29 06:22:34;;;;;;;6.65;6.05;;;20.00;42.50;;;;;;5071181;28;20220;-70
2022/03/29 06:25:00;;;;;;;7.78;6.38;;;20.00;42.40;;;;;;5037582;28;20604;-71
2022/03/29 06:27:26;;;;;;;7.78;6.95;;;20.00;42.50;;;;;;5051163;28;20251;-71
2022/03/29 06:29:56;;;;;;;8.13;6.40;;;20.00;42.40;;;;;;5050666;28;20237;-71
2022/03/29 06:32:23;;;;;;;9.20;7.03;;;20.00;42.40;;;;;;5034517;28;20639;-71
2022/03/29 06:34:49;;;;;;;8.38;7.10;;;20.00;42.40;;;;;;5034151;28;20203;-71
2022/03/29 06:37:15;;;;;;;9.63;7.85;;;20.10;42.60;;;;;;5034133;28;20175;-71
2022/03/29 06:39:41;;;;;;;8.23;7.25;;;20.00;42.40;;;;;;5034315;28;20180;-71
2022/03/29 06:42:08;;;;;;;8.05;7.22;;;20.00;42.40;;;;;;5035344;28;20705;-71
2022/03/29 06:44:34;;;;;;;7.32;6.38;;;20.00;42.40;;;;;;5034054;28;20203;-69
2022/03/29 06:47:01;;;;;;;9.05;7.10;;;20.10;42.60;;;;;;5050744;28;20179;-71
2022/03/29 06:49:28;;;;;;;7.75;6.95;;;20.00;42.30;;;;;;5050535;28;20249;-71
2022/03/29 06:51:54;;;;;;;7.43;6.65;;;20.00;42.40;;;;;;5033946;28;20190;-71
2022/03/29 06:54:20;;;;;;;7.47;6.70;;;20.00;42.40;;;;;;5033429;28;20753;-71
2022/03/29 06:56:47;;;;;;;6.30;5.70;;;20.00;42.40;;;;;;5033987;28;20185;-70
2022/03/29 06:59:13;;;;;;;7.32;6.18;;;20.00;42.40;;;;;;5033768;28;20651;-71
2022/03/29 07:01:39;;;;;;;7.03;6.32;;;20.00;42.50;;;;;;5035279;28;20185;-71
2022/03/29 07:04:07;;;;;;;6.57;5.97;;;20.10;42.40;;;;;;5033780;28;20187;-70
2022/03/29 07:06:34;;;;;;;6.70;6.10;;;20.10;42.50;;;;;;5033925;28;20257;-71
2022/03/29 07:11:46;;;;;;;7.43;6.60;;;20.10;42.50;;;;;;5034737;28;20194;-71
2022/03/29 07:14:12;;;;;;;6.93;6.22;;;20.10;42.50;;;;;;5034634;28;20179;-71
2022/03/29 07:16:39;;;;;;;7.18;6.47;;;20.10;42.60;;;;;;5033357;28;20195;-70
2022/03/29 07:19:09;;;;;;;8.05;7.22;;;20.10;42.60;;;;;;5033225;28;20191;-70
2022/03/29 07:21:39;;;;;;;9.25;7.18;;;20.10;42.50;;;;;;5033655;28;20191;-70
2022/03/29 07:24:09;;;;;;;9.88;7.50;;;20.10;42.50;;;;;;5033439;28;20183;-70
2022/03/29 07:26:36;;;;;;;8.48;7.68;;;20.10;42.50;;;;;;5065200;22;20226;-74
2022/03/29 07:29:04;;;;;;;8.68;7.78;;;20.10;42.50;;;;;;5051786;28;20608;-74
2022/03/29 07:31:31;;;;;;;7.28;6.57;;;20.10;42.50;;;;;;5068617;28;20684;-74
2022/03/29 07:33:58;;;;;;;8.48;6.88;;;20.10;42.40;;;;;;5051827;28;20568;-74
2022/03/29 07:36:24;;;;;;;8.15;6.97;;;20.10;42.50;;;;;;5051878;28;20235;-73
2022/03/29 07:38:50;;;;;;;7.20;6.50;;;20.10;42.50;;;;;;5035230;28;20191;-74
2022/03/29 07:41:17;;;;;;;7.07;6.38;;;20.10;42.50;;;;;;5068539;28;20179;-73
2022/03/29 07:43:44;;;;;;;7.47;5.97;;;20.20;42.60;;;;;;5051746;28;20190;-74
2022/03/29 07:46:10;;;;;;;6.90;6.13;;;20.20;42.60;;;;;;5051820;28;20195;-74
2022/03/29 07:48:36;;;;;;;7.30;6.28;;;20.20;42.60;;;;;;5051250;28;20191;-74
2022/03/29 07:51:02;;;;;;;7.68;6.50;;;20.20;42.60;;;;;;5051517;28;20210;-74
2022/03/29 07:53:29;;;;;;;6.45;5.78;;;20.20;42.60;;;;;;5050928;28;20210;-74
2022/03/29 07:55:55;;;;;;;6.50;5.72;;;20.20;42.60;;;;;;5035004;28;20265;-73
2022/03/29 07:58:21;;;;;;;7.20;6.32;;;20.20;42.60;;;;;;5034655;28;20186;-74
2022/03/29 08:00:52;;;;;;;6.68;6.00;;;20.20;42.50;;;;;;5068017;28;20193;-74
2022/03/29 08:03:21;;;;;;;6.68;6.05;;;20.30;42.60;;;;;;5051743;28;20213;-74
2022/03/29 08:05:49;;;;;;;6.68;5.97;;;20.20;42.50;;;;;;5051389;28;20201;-74
2022/03/29 08:08:17;;;;;;;8.32;6.30;;;20.30;42.60;;;;;;5034627;28;20273;-74
2022/03/29 08:10:45;;;;;;;6.35;5.70;;;20.30;42.60;;;;;;5051240;28;20213;-74
2022/03/29 08:13:11;;;;;;;6.53;5.93;;;20.30;42.50;;;;;;5033522;28;20293;-74
2022/03/29 08:15:40;;;;;;;7.00;6.28;;;20.30;42.60;;;;;;5051123;28;20182;-74
2022/03/29 08:18:07;;;;;;;6.75;6.15;;;20.30;42.60;;;;;;5034625;28;20186;-74
2022/03/29 08:20:34;;;;;;;6.22;5.63;;;20.30;43.20;;;;;;5050900;28;20182;-74
2022/03/29 08:23:00;;;;;;;7.53;6.00;;;20.20;42.50;;;;;;5050664;28;20215;-74
2022/03/29 08:25:31;;;;;;;6.60;6.00;;;20.30;42.60;;;;;;5050851;28;20194;-73
2022/03/29 08:27:59;;;;;;;6.57;5.97;;;20.30;42.60;;;;;;5067734;28;20217;-73
2022/03/29 08:30:26;;;;;;;6.03;5.53;;;20.30;42.50;;;;;;5066612;28;20293;-74
2022/03/29 08:32:53;;;;;;;6.38;5.55;;;20.30;42.50;;;;;;5050542;28;20202;-74
2022/03/29 08:35:19;;;;;;;6.57;5.95;;;20.30;42.60;;;;;;5050792;28;20723;-74
2022/03/29 08:37:48;;;;;;;6.07;5.47;;;20.30;42.60;;;;;;5050707;28;20269;-74
2022/03/29 08:40:21;;;;;;;6.30;5.65;;;20.30;42.50;;;;;;5066910;28;20191;-74
2022/03/29 08:42:54;;;;;;;7.03;5.25;;;20.30;42.50;;;;;;5051841;28;20206;-74
2022/03/29 08:45:26;;;;;;;6.13;5.53;;;20.30;42.60;;;;;;5067363;28;20218;-74
2022/03/29 08:47:57;;;;;;;6.18;5.57;;;20.30;42.50;;;;;;5050466;28;20183;-73
2022/03/29 08:50:27;;;;;;;7.53;5.40;;;20.30;42.50;;;;;;5066996;28;20210;-74
2022/03/29 08:52:53;;;;;;;6.38;5.78;;;20.30;42.50;;;;;;5050477;28;20214;-74
2022/03/29 08:55:21;;;;;;;6.15;5.60;;;20.30;42.50;;;;;;5050744;28;20337;-74
2022/03/29 08:57:54;;;;;;;6.15;5.55;;;20.30;42.50;;;;;;5051701;28;20190;-74
2022/03/29 09:00:23;;;;;;;6.18;5.57;;;20.30;42.60;;;;;;5050306;28;20247;-73
2022/03/29 09:02:50;;;;;;;6.13;5.60;;;20.40;42.70;;;;;;5050102;28;20583;-74
2022/03/29 09:05:22;;;;;;;6.53;5.93;;;20.30;42.50;;;;;;5050727;28;20187;-76
2022/03/29 09:08:08;;;;;;;5.80;5.30;;;20.30;42.60;;;;;;5049688;28;20197;-76
2022/03/29 09:10:48;;;;;;;6.40;5.70;;;20.30;42.60;;;;;;5065634;28;20206;-76
2022/03/29 09:13:30;;;;;;;6.03;5.53;;;20.40;42.70;;;;;;5049672;28;20214;-76
2022/03/29 09:16:00;;;;;;;5.95;5.03;;;20.30;42.60;;;;;;5050136;28;20570;-76
2022/03/29 09:18:28;;;;;;;5.80;5.25;;;20.30;42.50;;;;;;5049805;28;20244;-76
2022/03/29 09:21:16;;;;;;;6.00;5.40;;;20.30;42.50;;;;;;5049976;28;20189;-76
2022/03/29 09:24:04;;;;;;;6.13;5.63;;;20.30;42.60;;;;;;5065449;28;20199;-76
2022/03/29 09:26:33;;;;;;;5.57;5.07;;;20.30;42.60;;;;;;5033226;28;20197;-77
2022/03/29 09:29:00;;;;;;;5.80;4.93;;;20.40;42.70;;;;;;5066146;28;20239;-76
2022/03/29 09:31:29;;;;;;;5.88;5.28;;;20.30;42.60;;;;;;5066376;28;20643;-78
2022/03/29 09:34:28;;;;;;;6.00;5.35;;;20.40;43.30;;;;;;5049581;28;20186;-76
2022/03/29 09:36:54;;;;;;;5.05;4.65;;;20.40;42.70;;;;;;5049813;28;20187;-78
2022/03/29 09:39:38;;;;;;;6.40;5.80;;;20.40;42.70;;;;;;5049350;28;20186;-76
2022/03/29 09:42:10;;;;;;;7.90;6.35;;;20.40;43.10;;;;;;5066387;28;20238;-78
2022/03/29 09:44:42;;;;;;;5.78;5.22;;;20.40;43.00;;;;;;5050111;28;20197;-76
2022/03/29 09:47:12;;;;;;;7.28;5.50;;;20.40;42.90;;;;;;5066746;28;20251;-76
2022/03/29 09:50:11;;;;;;;6.30;5.70;;;20.40;42.90;;;;;;5053862;28;20229;-76
2022/03/29 09:52:39;;;;;;;6.05;5.45;;;20.40;42.80;;;;;;5019319;28;20230;-77
2022/03/29 09:55:18;;;;;;;7.13;6.07;;;20.40;42.80;;;;;;5046137;28;20195;-76
2022/03/29 09:57:51;;;;;;;6.05;5.45;;;20.40;42.80;;;;;;5046245;28;20191;-76
2022/03/29 10:00:40;;;;;;;5.82;5.07;;;20.40;42.70;;;;;;5049474;28;20204;-76
2022/03/29 10:03:10;;;;;;;6.72;6.03;;;20.40;42.80;;;;;;5025151;28;20212;-76
2022/03/29 10:05:42;;;;;;;5.75;5.20;;;20.40;42.80;;;;;;5064641;28;20226;-74
2022/03/29 10:11:01;;;;;;;6.40;5.45;;;20.40;42.80;;;;;;5086241;28;20209;-74
2022/03/29 10:13:29;;;;;;;6.82;5.88;;;20.40;42.80;;;;;;5070850;28;20265;-74
2022/03/29 10:15:56;;;;;;;6.20;5.60;;;20.40;42.60;;;;;;5086203;28;20185;-74
2022/03/29 10:18:27;;;;;;;6.60;5.45;;;20.50;42.80;;;;;;5075081;28;20205;-73
2022/03/29 10:20:56;;;;;;;6.10;5.50;;;20.40;42.70;;;;;;5076901;28;20181;-73
2022/03/29 10:23:24;;;;;;;5.90;5.10;;;20.50;42.70;;;;;;5069233;28;20198;-74
2022/03/29 10:25:53;;;;;;;6.35;5.57;;;20.50;42.70;;;;;;5086256;28;20201;-74
2022/03/29 10:28:21;;;;;;;6.18;5.55;;;20.50;42.80;;;;;;5069014;28;20193;-73
2022/03/29 10:30:47;;;;;;;6.43;5.78;;;20.50;42.60;;;;;;5053918;28;20221;-74
2022/03/29 10:33:30;;;;;;;6.55;5.38;;;20.50;42.70;;;;;;5032541;28;20198;-74
2022/03/29 10:36:10;;;;;;;6.30;5.68;;;20.50;42.70;;;;;;5050858;28;20187;-74
2022/03/29 10:38:49;;;;;;;6.43;5.55;;;20.50;42.60;;;;;;5069514;28;20178;-75
2022/03/29 10:41:30;;;;;;;6.53;4.95;;;20.50;42.60;;;;;;5052999;28;20200;-74
2022/03/29 10:44:14;;;;;;;7.57;5.25;;;20.50;42.70;;;;;;5036004;28;20737;-74
2022/03/29 10:46:48;;;;;;;5.63;5.07;;;20.50;42.80;;;;;;5052760;28;20251;-74
2022/03/29 10:49:32;;;;;;;6.80;5.20;;;20.50;42.60;;;;;;5052431;28;20194;-74
2022/03/29 10:52:04;;;;;;;5.38;4.88;;;20.50;42.60;;;;;;5052705;28;20237;-74
2022/03/29 10:54:41;;;;;;;6.63;5.28;;;20.50;42.70;;;;;;5052389;28;20189;-74
2022/03/29 10:57:20;;;;;;;4.97;4.30;;;20.50;42.70;;;;;;5052569;28;20186;-74
2022/03/29 10:59:58;;;;;;;7.68;6.10;;;20.50;43.00;;;;;;5052355;28;20281;-74
2022/03/29 11:02:25;;;;;;;5.82;5.25;;;20.50;43.10;;;;;;5051742;28;20202;-74
2022/03/29 11:05:10;;;;;;;7.38;5.78;;;20.50;42.80;;;;;;5052471;28;20212;-74
2022/03/29 11:07:38;;;;;;;7.03;4.88;;;20.60;42.60;;;;;;5052608;28;20233;-74
2022/03/29 11:10:18;;;;;;;6.95;5.32;;;20.50;42.60;;;;;;5052085;28;20194;-74
2022/03/29 11:12:53;;;;;;;5.53;4.65;;;20.50;42.40;;;;;;5053386;28;20206;-74
2022/03/29 11:15:24;;;;;;;5.82;5.22;;;20.60;42.60;;;;;;5052138;28;20221;-75
2022/03/29 11:17:55;;;;;;;6.88;5.28;;;20.60;42.70;;;;;;5051788;28;20194;-74
2022/03/29 11:20:30;;;;;;;7.88;5.55;;;20.60;42.60;;;;;;5068449;28;20229;-74
2022/03/29 11:22:59;;;;;;;6.15;5.25;;;20.60;42.80;;;;;;5068566;28;20213;-74
2022/03/29 11:25:25;;;;;;;5.97;4.88;;;20.60;43.30;;;;;;5068812;28;20175;-75
2022/03/29 11:27:51;;;;;;;7.07;5.80;;;20.60;42.90;;;;;;5068786;28;20228;-75
2022/03/29 11:30:18;;;;;;;7.28;5.05;;;20.60;42.40;;;;;;5051759;28;20694;-74
2022/03/29 11:32:46;;;;;;;7.43;5.50;;;20.60;42.80;;;;;;5051685;28;20210;-74
2022/03/29 11:35:15;;;;;;;7.78;5.30;;;20.60;42.70;;;;;;5063763;28;20187;-74
2022/03/29 11:37:45;;;;;;;6.50;5.30;;;20.60;42.80;;;;;;5051109;28;20194;-75
2022/03/29 11:40:15;;;;;;;7.00;5.43;;;20.60;42.50;;;;;;5034683;28;20186;-74
2022/03/29 11:42:59;;;;;;;6.88;5.18;;;20.60;42.60;;;;;;5051318;28;20237;-74
2022/03/29 11:45:30;;;;;;;5.57;5.07;;;20.60;42.60;;;;;;5067926;28;20186;-73
2022/03/29 11:48:04;;;;;;;8.52;5.53;;;20.60;42.60;;;;;;5067203;28;20193;-74
2022/03/29 11:50:38;;;;;;;5.68;5.05;;;20.60;42.50;;;;;;5051360;28;20225;-73
2022/03/29 11:53:35;;;;;;;7.00;5.80;;;20.60;42.60;;;;;;5067874;28;20209;-73
2022/03/29 11:56:03;;;;;;;5.95;4.97;;;20.60;42.40;;;;;;5050781;28;20239;-72
2022/03/29 11:58:40;;;;;;;6.00;4.80;;;20.60;42.60;;;;;;5050961;28;20197;-73
2022/03/29 12:01:22;;;;;;;5.97;5.38;;;20.60;42.60;;;;;;5067734;28;20236;-72
2022/03/29 12:03:56;;;;;;;5.63;5.10;;;20.60;42.40;;;;;;5052017;28;20547;-72
2022/03/29 12:06:26;;;;;;;9.25;5.68;;;20.60;42.10;;;;;;5068377;28;20208;-72
2022/03/29 12:08:59;;;;;;;6.50;4.88;;;20.60;42.60;;;;;;5067347;28;20220;-72
2022/03/29 12:11:39;;;;;;;6.43;5.78;;;20.60;42.80;;;;;;5067594;28;20222;-73
2022/03/29 12:14:13;;;;;;;7.32;5.22;;;20.60;42.70;;;;;;5051016;28;20183;-73
2022/03/29 12:16:48;;;;;;;7.47;5.20;;;20.60;42.70;;;;;;5067294;28;20177;-73
2022/03/29 12:19:25;;;;;;;9.07;5.38;;;20.60;42.60;;;;;;5050213;28;20185;-72
2022/03/29 12:22:01;;;;;;;6.07;5.22;;;20.60;42.50;;;;;;5064579;28;20790;-74
2022/03/29 12:24:37;;;;;;;6.60;5.45;;;20.60;42.50;;;;;;5067423;28;20214;-75
2022/03/29 12:27:14;;;;;;;6.68;5.28;;;20.60;42.60;;;;;;5051664;28;20222;-75
2022/03/29 12:29:58;;;;;;;6.30;5.00;;;20.60;42.20;;;;;;5046438;28;20429;-73
2022/03/29 12:32:24;;;;;;;8.50;5.45;;;20.60;42.20;;;;;;5030861;28;20779;-75
2022/03/29 12:34:59;;;;;;;5.90;5.25;;;20.60;42.70;;;;;;5047164;28;20260;-74
2022/03/29 12:37:27;;;;;;;6.93;5.13;;;20.60;42.80;;;;;;5050203;28;20213;-74
2022/03/29 12:40:09;;;;;;;5.70;4.65;;;20.60;42.10;;;;;;5066845;28;20183;-74
2022/03/29 12:42:35;;;;;;;10.70;5.10;;;20.60;42.60;;;;;;5050989;28;20230;-74
2022/03/29 12:45:07;;;;;;;6.50;4.85;;;20.60;42.30;;;;;;5051290;28;20214;-74
2022/03/29 12:47:34;;;;;;;8.95;5.28;;;20.60;42.30;;;;;;5050516;28;20216;-74
2022/03/29 12:50:02;;;;;;;6.97;5.20;;;20.60;42.10;;;;;;5049952;28;20214;-74
2022/03/29 12:52:28;;;;;;;8.95;4.97;;;20.70;42.30;;;;;;5066666;28;20826;-74
2022/03/29 12:55:01;;;;;;;7.93;5.00;;;20.60;42.60;;;;;;5050209;28;20244;-74
2022/03/29 12:58:01;;;;;;;9.35;5.18;;;20.60;42.40;;;;;;5067033;28;20186;-74
2022/03/29 13:00:41;;;;;;;6.93;5.60;;;20.60;42.40;;;;;;5048445;28;20193;-75
2022/03/29 13:03:10;;;;;;;9.25;5.38;;;20.70;42.80;;;;;;5050125;28;20209;-74
2022/03/29 13:05:36;;;;;;;7.60;4.82;;;20.70;42.70;;;;;;5050181;28;20183;-76
2022/03/29 13:08:03;;;;;;;6.57;5.25;;;20.60;42.50;;;;;;5067010;28;20193;-79